Time;durP1;ratioP1;P1;durP2;ratioP2;P2;SDS_P1;SDS_P2;PMS_P1;PMS_P2;Temp;Humidity;BMP_temperature;BMP_pressure;BME280_temperature;BME280_humidity;BME280_pressure;Samples;Min_cycle;Max_cycle;Signal;HPM_P1;HPM_P2
2023/08/22 00:00:41;;;;;;;5.55;3.13;;;;;;;;;;5056501;28;20079;-61
2023/08/22 00:03:07;;;;;;;7.47;3.78;;;;;;;;;;5056035;28;20047;-61
2023/08/22 00:05:33;;;;;;;4.10;2.90;;;;;;;;;;5056823;28;20025;-61
2023/08/22 00:08:04;;;;;;;4.90;3.97;;;;;;;;;;5056181;28;20033;-61
2023/08/22 00:10:30;;;;;;;3.92;3.28;;;;;;;;;;5057045;28;20025;-61
2023/08/22 00:12:56;;;;;;;7.50;4.30;;;;;;;;;;5056017;28;20071;-61
2023/08/22 00:15:23;;;;;;;4.93;3.40;;;;;;;;;;5056423;28;20095;-61
2023/08/22 00:17:50;;;;;;;4.18;3.78;;;;;;;;;;5055639;28;20078;-61
2023/08/22 00:20:17;;;;;;;7.97;3.75;;;;;;;;;;5056801;28;20025;-62
2023/08/22 00:22:43;;;;;;;4.43;3.38;;;;;;;;;;5055973;28;20402;-61
2023/08/22 00:25:09;;;;;;;5.40;3.65;;;;;;;;;;5055278;28;20029;-61
2023/08/22 00:27:35;;;;;;;4.35;3.85;;;;;;;;;;5056101;28;20025;-61
2023/08/22 00:30:02;;;;;;;5.13;3.90;;;;;;;;;;5056224;28;20032;-61
2023/08/22 00:32:28;;;;;;;3.88;3.47;;;;;;;;;;5055500;28;20462;-61
2023/08/22 00:34:54;;;;;;;8.35;4.07;;;;;;;;;;5055981;28;20052;-61
2023/08/22 00:37:20;;;;;;;5.35;3.38;;;;;;;;;;5055613;28;20138;-61
2023/08/22 00:39:49;;;;;;;6.50;3.28;;;;;;;;;;5055577;28;20027;-61
2023/08/22 00:42:14;;;;;;;5.53;3.97;;;;;;;;;;5055610;28;20495;-61
2023/08/22 00:44:40;;;;;;;5.68;4.45;;;;;;;;;;5056078;28;20102;-61
2023/08/22 00:47:06;;;;;;;4.63;4.00;;;;;;;;;;5055182;28;20104;-61
2023/08/22 00:49:33;;;;;;;4.03;3.30;;;;;;;;;;5055515;28;20025;-61
2023/08/22 00:51:59;;;;;;;4.00;3.60;;;;;;;;;;5055952;28;20108;-61
2023/08/22 00:54:27;;;;;;;4.75;4.13;;;;;;;;;;5055148;28;20374;-61
2023/08/22 00:56:54;;;;;;;4.60;3.92;;;;;;;;;;5055751;28;20107;-61
2023/08/22 00:59:20;;;;;;;4.38;3.30;;;;;;;;;;5055307;28;20020;-61
2023/08/22 01:01:46;;;;;;;4.63;3.72;;;;;;;;;;5055476;28;20100;-61
2023/08/22 01:04:12;;;;;;;4.25;3.58;;;;;;;;;;5055764;28;20032;-61
2023/08/22 01:06:38;;;;;;;3.58;3.28;;;;;;;;;;5055160;28;20033;-59
2023/08/22 01:09:08;;;;;;;4.25;3.55;;;;;;;;;;5055249;28;20485;-60
2023/08/22 01:11:34;;;;;;;;;;;;;;;;;;5055519;28;20021;-61
2023/08/22 01:14:03;;;;;;;4.60;3.30;;;;;;;;;;5055003;28;19954;-61
2023/08/22 01:16:30;;;;;;;4.28;3.15;;;;;;;;;;5054916;28;20120;-61
2023/08/22 01:18:56;;;;;;;4.18;3.33;;;;;;;;;;5055319;28;20029;-61
2023/08/22 01:21:22;;;;;;;5.03;3.95;;;;;;;;;;5055531;28;20118;-61
2023/08/22 01:23:48;;;;;;;4.57;3.15;;;;;;;;;;5054821;28;20028;-61
2023/08/22 01:26:14;;;;;;;3.78;3.30;;;;;;;;;;5055315;28;20029;-61
2023/08/22 01:28:43;;;;;;;4.28;2.78;;;;;;;;;;5054749;28;20025;-61
2023/08/22 01:31:27;;;;;;;3.95;2.72;;;;;;;;;;5054924;28;20412;-61
2023/08/22 01:33:58;;;;;;;3.70;3.03;;;;;;;;;;5054948;28;20459;-61
2023/08/22 01:36:25;;;;;;;5.43;3.20;;;;;;;;;;5054260;28;20045;-61
2023/08/22 01:38:52;;;;;;;4.82;3.33;;;;;;;;;;5053947;28;20521;-61
2023/08/22 01:41:18;;;;;;;4.90;3.45;;;;;;;;;;5055292;28;20021;-61
2023/08/22 01:43:44;;;;;;;10.98;3.88;;;;;;;;;;5054966;28;20028;-61
2023/08/22 01:46:10;;;;;;;3.67;3.35;;;;;;;;;;5054747;28;20021;-61
2023/08/22 01:48:36;;;;;;;4.25;3.22;;;;;;;;;;5055128;28;20021;-61
2023/08/22 01:51:03;;;;;;;3.80;2.95;;;;;;;;;;5054922;28;20021;-61
2023/08/22 01:53:29;;;;;;;4.53;3.22;;;;;;;;;;5054610;28;20024;-61
2023/08/22 01:55:58;;;;;;;4.30;3.15;;;;;;;;;;5054180;28;20048;-61
2023/08/22 01:58:24;;;;;;;3.33;3.03;;;;;;;;;;5054458;28;20025;-61
2023/08/22 02:00:50;;;;;;;4.47;3.40;;;;;;;;;;5054450;28;20340;-61
2023/08/22 02:03:16;;;;;;;3.58;3.03;;;;;;;;;;5054412;28;20366;-61
2023/08/22 02:05:42;;;;;;;4.30;3.22;;;;;;;;;;5054076;28;20036;-61
2023/08/22 02:08:09;;;;;;;4.05;3.65;;;;;;;;;;5054235;28;20074;-61
2023/08/22 02:10:35;;;;;;;4.93;3.70;;;;;;;;;;5054846;28;20401;-61
2023/08/22 02:13:01;;;;;;;6.95;3.30;;;;;;;;;;5053911;28;20029;-61
2023/08/22 02:15:26;;;;;;;4.32;3.22;;;;;;;;;;5053932;28;20031;-61
2023/08/22 02:17:52;;;;;;;3.50;2.70;;;;;;;;;;5053821;28;20033;-61
2023/08/22 02:20:19;;;;;;;4.47;3.22;;;;;;;;;;5053578;28;20120;-61
2023/08/22 02:22:45;;;;;;;3.33;2.60;;;;;;;;;;5054272;28;20029;-61
2023/08/22 02:25:11;;;;;;;9.27;3.05;;;;;;;;;;5053737;28;20424;-61
2023/08/22 02:27:38;;;;;;;3.22;2.83;;;;;;;;;;5054527;28;20032;-61
2023/08/22 02:30:07;;;;;;;4.38;3.25;;;;;;;;;;5054279;28;20021;-61
2023/08/22 02:32:33;;;;;;;3.90;3.13;;;;;;;;;;5053456;28;20471;-61
2023/08/22 02:34:59;;;;;;;4.38;3.45;;;;;;;;;;5053457;28;20025;-61
2023/08/22 02:37:25;;;;;;;4.97;3.42;;;;;;;;;;5053868;28;20029;-61
2023/08/22 02:39:53;;;;;;;4.43;3.33;;;;;;;;;;5054064;28;20033;-61
2023/08/22 02:42:19;;;;;;;3.88;3.47;;;;;;;;;;5054125;28;20064;-61
2023/08/22 02:44:45;;;;;;;5.78;4.18;;;;;;;;;;5053814;28;20029;-61
2023/08/22 02:47:11;;;;;;;5.40;4.05;;;;;;;;;;5053484;28;20459;-61
2023/08/22 02:49:36;;;;;;;6.00;3.92;;;;;;;;;;5053507;28;20021;-61
2023/08/22 02:52:03;;;;;;;4.25;3.50;;;;;;;;;;5053515;28;20498;-61
2023/08/22 02:54:29;;;;;;;4.68;4.18;;;;;;;;;;5053454;28;20029;-61
2023/08/22 02:56:55;;;;;;;4.78;4.35;;;;;;;;;;5053062;28;20032;-61
2023/08/22 02:59:21;;;;;;;4.32;3.67;;;;;;;;;;5053113;28;20112;-61
2023/08/22 03:01:47;;;;;;;5.13;4.00;;;;;;;;;;5053881;28;20065;-61
2023/08/22 03:04:13;;;;;;;5.10;4.28;;;;;;;;;;5053608;28;20025;-61
2023/08/22 03:06:39;;;;;;;5.18;4.35;;;;;;;;;;5053314;28;20082;-61
2023/08/22 03:09:05;;;;;;;4.50;3.83;;;;;;;;;;5053356;28;20023;-61
2023/08/22 03:11:30;;;;;;;5.35;4.35;;;;;;;;;;5053639;28;20022;-61
2023/08/22 03:13:56;;;;;;;4.45;3.95;;;;;;;;;;5054095;28;20017;-61
2023/08/22 03:16:22;;;;;;;4.80;3.92;;;;;;;;;;5053730;28;20086;-61
2023/08/22 03:18:48;;;;;;;4.78;3.92;;;;;;;;;;5053449;28;20072;-61
2023/08/22 03:21:14;;;;;;;5.97;4.43;;;;;;;;;;5053160;28;20061;-61
2023/08/22 03:23:40;;;;;;;6.32;4.07;;;;;;;;;;5053251;28;20025;-61
2023/08/22 03:26:11;;;;;;;4.50;4.07;;;;;;;;;;5053397;28;20044;-61
2023/08/22 03:28:37;;;;;;;4.57;4.18;;;;;;;;;;5053373;28;20021;-61
2023/08/22 03:31:04;;;;;;;4.70;3.67;;;;;;;;;;5053712;28;20351;-61
2023/08/22 03:33:31;;;;;;;6.47;5.13;;;;;;;;;;5053662;28;20342;-61
2023/08/22 03:35:59;;;;;;;5.15;4.07;;;;;;;;;;5053074;28;20138;-61
2023/08/22 03:38:25;;;;;;;5.00;3.92;;;;;;;;;;5053028;28;20502;-61
2023/08/22 03:40:52;;;;;;;4.45;3.80;;;;;;;;;;5053579;28;20114;-61
2023/08/22 03:43:21;;;;;;;5.38;4.45;;;;;;;;;;5052901;28;20028;-61
2023/08/22 03:45:47;;;;;;;4.43;4.03;;;;;;;;;;5053213;28;20025;-61
2023/08/22 03:48:13;;;;;;;5.68;3.95;;;;;;;;;;5052623;28;20025;-61
2023/08/22 03:50:39;;;;;;;5.22;3.45;;;;;;;;;;5053533;28;20504;-61
2023/08/22 03:53:06;;;;;;;4.82;3.78;;;;;;;;;;5053689;28;20067;-61
2023/08/22 03:55:32;;;;;;;6.13;4.32;;;;;;;;;;5052934;28;20108;-61
2023/08/22 03:58:02;;;;;;;4.53;4.07;;;;;;;;;;5053304;28;20429;-61
2023/08/22 04:00:28;;;;;;;4.72;4.20;;;;;;;;;;5054070;28;20112;-61
2023/08/22 04:02:57;;;;;;;4.97;3.70;;;;;;;;;;5056387;28;20029;-61
2023/08/22 04:05:24;;;;;;;5.88;4.60;;;;;;;;;;5056393;28;20021;-61
2023/08/22 04:07:50;;;;;;;5.00;3.88;;;;;;;;;;5056279;28;20029;-61
2023/08/22 04:10:16;;;;;;;4.63;4.15;;;;;;;;;;5056530;28;20070;-61
2023/08/22 04:12:42;;;;;;;4.85;4.35;;;;;;;;;;5056453;28;20052;-61
2023/08/22 04:15:09;;;;;;;5.63;3.47;;;;;;;;;;5056256;28;20474;-61
2023/08/22 04:17:35;;;;;;;4.60;3.97;;;;;;;;;;5056042;28;20033;-61
2023/08/22 04:20:02;;;;;;;4.05;3.63;;;;;;;;;;5056971;28;20032;-61
2023/08/22 04:22:30;;;;;;;11.85;4.15;;;;;;;;;;5056825;28;20047;-61
2023/08/22 04:24:56;;;;;;;4.40;3.83;;;;;;;;;;5055952;28;20061;-61
2023/08/22 04:27:22;;;;;;;4.25;3.55;;;;;;;;;;5056218;28;20071;-61
2023/08/22 04:29:48;;;;;;;4.40;3.92;;;;;;;;;;5055661;28;20021;-61
2023/08/22 04:32:14;;;;;;;5.70;4.50;;;;;;;;;;5055875;28;20021;-61
2023/08/22 04:34:40;;;;;;;7.22;4.15;;;;;;;;;;5055908;28;20528;-61
2023/08/22 04:37:06;;;;;;;5.28;3.97;;;;;;;;;;5056407;28;20040;-60
2023/08/22 04:39:32;;;;;;;4.55;3.78;;;;;;;;;;5055880;28;20023;-61
2023/08/22 04:41:58;;;;;;;6.13;4.72;;;;;;;;;;5055388;28;20056;-61
2023/08/22 04:44:23;;;;;;;5.93;4.70;;;;;;;;;;5055776;28;20025;-61
2023/08/22 04:46:49;;;;;;;5.30;4.80;;;;;;;;;;5055859;28;20032;-61
2023/08/22 04:49:15;;;;;;;6.43;4.40;;;;;;;;;;5056373;28;20347;-61
2023/08/22 04:51:41;;;;;;;6.47;4.45;;;;;;;;;;5056005;28;20021;-61
2023/08/22 04:54:07;;;;;;;7.80;4.72;;;;;;;;;;5055416;28;20025;-61
2023/08/22 04:56:33;;;;;;;8.43;3.67;;;;;;;;;;5055763;28;20060;-61
2023/08/22 04:58:59;;;;;;;4.55;4.10;;;;;;;;;;5055446;28;20114;-61
2023/08/22 05:01:25;;;;;;;5.00;4.18;;;;;;;;;;5055311;28;20021;-61
2023/08/22 05:03:51;;;;;;;7.47;5.20;;;;;;;;;;5055515;28;20021;-61
2023/08/22 05:06:17;;;;;;;5.20;4.38;;;;;;;;;;5055730;28;20378;-61
2023/08/22 05:08:43;;;;;;;5.57;4.78;;;;;;;;;;5055704;28;20112;-61
2023/08/22 05:11:09;;;;;;;5.57;4.53;;;;;;;;;;5055002;28;20035;-61
2023/08/22 05:13:35;;;;;;;5.72;4.93;;;;;;;;;;5055066;28;20025;-61
2023/08/22 05:16:01;;;;;;;5.38;4.55;;;;;;;;;;5054659;28;20025;-61
2023/08/22 05:18:27;;;;;;;5.47;4.32;;;;;;;;;;5054659;28;20374;-61
2023/08/22 05:20:53;;;;;;;5.28;4.78;;;;;;;;;;5054551;28;20170;-61
2023/08/22 05:23:19;;;;;;;5.70;5.03;;;;;;;;;;5054814;28;20021;-58
2023/08/22 05:25:45;;;;;;;5.75;4.95;;;;;;;;;;5055006;28;20063;-59
2023/08/22 05:28:11;;;;;;;5.80;5.20;;;;;;;;;;5055094;28;20455;-60
2023/08/22 05:30:37;;;;;;;7.55;5.38;;;;;;;;;;5055182;28;20102;-59
2023/08/22 05:33:03;;;;;;;8.32;5.25;;;;;;;;;;5054593;28;20025;-60
2023/08/22 05:35:29;;;;;;;8.90;5.43;;;;;;;;;;5054036;28;20048;-60
2023/08/22 05:37:55;;;;;;;6.85;5.57;;;;;;;;;;5054415;28;20037;-60
2023/08/22 05:40:22;;;;;;;6.47;4.95;;;;;;;;;;5055133;28;20021;-60
2023/08/22 05:42:47;;;;;;;6.05;4.95;;;;;;;;;;5054454;28;20017;-59
2023/08/22 05:45:13;;;;;;;5.03;4.47;;;;;;;;;;5054128;28;20017;-60
2023/08/22 05:47:39;;;;;;;5.65;4.55;;;;;;;;;;5054370;28;20055;-59
2023/08/22 05:50:06;;;;;;;6.28;5.03;;;;;;;;;;5055193;28;20021;-60
2023/08/22 05:52:32;;;;;;;6.18;5.05;;;;;;;;;;5054801;28;20071;-60
2023/08/22 05:54:58;;;;;;;5.97;5.38;;;;;;;;;;5054585;28;20404;-60
2023/08/22 05:57:24;;;;;;;4.78;4.18;;;;;;;;;;5054722;28;20036;-60
2023/08/22 05:59:50;;;;;;;5.40;4.15;;;;;;;;;;5054757;28;20024;-60
2023/08/22 06:02:16;;;;;;;5.72;4.90;;;;;;;;;;5054715;28;20032;-60
2023/08/22 06:04:42;;;;;;;6.05;4.22;;;;;;;;;;5054599;28;20025;-60
2023/08/22 06:07:08;;;;;;;5.95;4.00;;;;;;;;;;5054211;28;20333;-60
2023/08/22 06:09:34;;;;;;;6.15;4.05;;;;;;;;;;5053967;28;20083;-60
2023/08/22 06:12:00;;;;;;;5.53;4.70;;;;;;;;;;5054164;28;20021;-60
2023/08/22 06:14:26;;;;;;;7.13;5.07;;;;;;;;;;5053617;28;20104;-60
2023/08/22 06:16:52;;;;;;;5.97;5.13;;;;;;;;;;5053796;28;20068;-60
2023/08/22 06:19:18;;;;;;;5.85;4.60;;;;;;;;;;5054033;28;20336;-60
2023/08/22 06:21:44;;;;;;;6.07;4.68;;;;;;;;;;5054249;28;20028;-60
2023/08/22 06:24:10;;;;;;;9.73;5.72;;;;;;;;;;5053306;28;20025;-60
2023/08/22 06:26:39;;;;;;;5.47;4.75;;;;;;;;;;5053438;28;20021;-60
2023/08/22 06:29:05;;;;;;;8.32;5.05;;;;;;;;;;5054128;28;20367;-60
2023/08/22 06:31:31;;;;;;;6.75;5.18;;;;;;;;;;5054155;28;20017;-60
2023/08/22 06:33:57;;;;;;;5.35;3.95;;;;;;;;;;5053562;28;20028;-60
2023/08/22 06:36:23;;;;;;;4.40;4.00;;;;;;;;;;5053456;28;20049;-60
2023/08/22 06:38:48;;;;;;;5.10;4.53;;;;;;;;;;5053171;28;20051;-60
2023/08/22 06:41:16;;;;;;;5.03;4.45;;;;;;;;;;5053567;28;20079;-60
2023/08/22 06:43:42;;;;;;;6.60;5.85;;;;;;;;;;5053501;28;20025;-60
2023/08/22 06:46:08;;;;;;;6.25;4.72;;;;;;;;;;5053762;28;20024;-60
2023/08/22 06:48:34;;;;;;;5.82;5.28;;;;;;;;;;5053397;28;20025;-60
2023/08/22 06:51:00;;;;;;;8.30;4.53;;;;;;;;;;5053558;28;20036;-60
2023/08/22 06:53:26;;;;;;;5.65;4.88;;;;;;;;;;5053519;28;20071;-60
2023/08/22 06:55:52;;;;;;;5.50;3.88;;;;;;;;;;5053445;28;20020;-60
2023/08/22 06:58:18;;;;;;;5.53;4.43;;;;;;;;;;5053789;28;20029;-60
2023/08/22 07:00:44;;;;;;;9.32;5.30;;;;;;;;;;5053744;28;20063;-60
2023/08/22 07:03:09;;;;;;;5.68;4.78;;;;;;;;;;5053904;28;20390;-60
2023/08/22 07:05:36;;;;;;;5.68;4.43;;;;;;;;;;5054131;28;20025;-60
2023/08/22 07:08:02;;;;;;;5.50;4.95;;;;;;;;;;5053342;28;20025;-60
2023/08/22 07:10:28;;;;;;;4.38;3.88;;;;;;;;;;5053553;28;20490;-60
2023/08/22 07:12:54;;;;;;;6.55;4.18;;;;;;;;;;5052653;28;20057;-60
2023/08/22 07:15:21;;;;;;;7.28;4.85;;;;;;;;;;5053423;28;20465;-60
2023/08/22 07:17:47;;;;;;;5.93;5.32;;;;;;;;;;5053185;28;20083;-60
2023/08/22 07:20:13;;;;;;;5.07;3.78;;;;;;;;;;5053950;28;20071;-60
2023/08/22 07:22:38;;;;;;;6.63;4.75;;;;;;;;;;5053654;28;20021;-60
2023/08/22 07:25:05;;;;;;;5.50;4.72;;;;;;;;;;5053732;28;20025;-60
2023/08/22 07:27:31;;;;;;;5.47;4.28;;;;;;;;;;5053052;28;20455;-60
2023/08/22 07:29:56;;;;;;;7.60;4.78;;;;;;;;;;5052892;28;20017;-60
2023/08/22 07:32:22;;;;;;;4.80;3.90;;;;;;;;;;5053592;28;20115;-60
2023/08/22 07:34:48;;;;;;;4.80;4.35;;;;;;;;;;5053323;28;20116;-60
2023/08/22 07:37:15;;;;;;;4.60;3.65;;;;;;;;;;5056439;28;20079;-60
2023/08/22 07:39:41;;;;;;;4.95;3.55;;;;;;;;;;5056902;28;20029;-60
2023/08/22 07:42:07;;;;;;;4.70;4.15;;;;;;;;;;5056866;28;20401;-61
2023/08/22 07:44:33;;;;;;;4.78;4.30;;;;;;;;;;5056807;28;20082;-61
2023/08/22 07:46:59;;;;;;;4.63;4.03;;;;;;;;;;5057234;28;20033;-61
2023/08/22 07:49:25;;;;;;;6.00;4.70;;;;;;;;;;5057517;28;20429;-60
2023/08/22 07:51:51;;;;;;;5.88;3.38;;;;;;;;;;5056855;28;20103;-60
2023/08/22 07:54:17;;;;;;;8.93;3.67;;;;;;;;;;5056571;28;20020;-60
2023/08/22 07:56:44;;;;;;;4.70;3.72;;;;;;;;;;5056942;28;20032;-60
2023/08/22 07:59:10;;;;;;;4.00;3.58;;;;;;;;;;5056525;28;20037;-60
2023/08/22 08:01:36;;;;;;;5.97;3.90;;;;;;;;;;5056910;28;20485;-60
2023/08/22 08:04:06;;;;;;;4.38;3.83;;;;;;;;;;5056868;28;20021;-60
2023/08/22 08:06:41;;;;;;;4.90;3.22;;;;;;;;;;5056339;28;20037;-61
2023/08/22 08:09:07;;;;;;;4.72;3.60;;;;;;;;;;5057163;28;20075;-61
2023/08/22 08:11:34;;;;;;;7.03;3.75;;;;;;;;;;5056389;28;20025;-62
2023/08/22 08:14:01;;;;;;;4.40;3.40;;;;;;;;;;5056636;28;20064;-61
2023/08/22 08:16:27;;;;;;;3.95;3.50;;;;;;;;;;5056063;28;20024;-60
2023/08/22 08:18:53;;;;;;;4.10;3.50;;;;;;;;;;5056878;28;20379;-59
2023/08/22 08:21:20;;;;;;;3.92;3.53;;;;;;;;;;5055991;28;20066;-60
2023/08/22 08:23:46;;;;;;;4.15;3.45;;;;;;;;;;5056522;28;20048;-61
2023/08/22 08:26:12;;;;;;;4.00;2.72;;;;;;;;;;5056466;28;20370;-62
2023/08/22 08:28:41;;;;;;;4.18;3.58;;;;;;;;;;5056000;28;20021;-59
2023/08/22 08:31:07;;;;;;;6.20;3.80;;;;;;;;;;5056136;28;20494;-60
2023/08/22 08:33:33;;;;;;;6.20;3.85;;;;;;;;;;5055594;28;20116;-60
2023/08/22 08:35:59;;;;;;;7.13;4.13;;;;;;;;;;5055974;28;20099;-60
2023/08/22 08:38:25;;;;;;;4.65;3.78;;;;;;;;;;5056290;28;20129;-60
2023/08/22 08:40:52;;;;;;;4.50;3.20;;;;;;;;;;5056609;28;20021;-58
2023/08/22 08:43:19;;;;;;;5.15;3.72;;;;;;;;;;5055710;28;20017;-59
2023/08/22 08:45:45;;;;;;;3.90;3.28;;;;;;;;;;5055660;28;20112;-59
2023/08/22 08:48:11;;;;;;;7.75;4.22;;;;;;;;;;5055301;28;20057;-60
2023/08/22 08:50:38;;;;;;;7.32;4.70;;;;;;;;;;5056119;28;20029;-61
2023/08/22 08:53:04;;;;;;;4.75;4.25;;;;;;;;;;5055519;28;20589;-60
2023/08/22 08:55:30;;;;;;;6.95;4.55;;;;;;;;;;5055925;28;20112;-60
2023/08/22 08:57:56;;;;;;;4.43;3.63;;;;;;;;;;5055347;28;20051;-60
2023/08/22 09:00:22;;;;;;;5.05;4.30;;;;;;;;;;5055409;28;20025;-60
2023/08/22 09:02:48;;;;;;;4.75;4.20;;;;;;;;;;5055715;28;20053;-60
2023/08/22 09:05:15;;;;;;;5.75;4.55;;;;;;;;;;5056054;28;20033;-60
2023/08/22 09:07:44;;;;;;;6.72;4.43;;;;;;;;;;5055020;28;20459;-60
2023/08/22 09:10:10;;;;;;;7.55;4.25;;;;;;;;;;5055778;28;20138;-60
2023/08/22 09:12:36;;;;;;;5.63;4.45;;;;;;;;;;5054744;28;20025;-60
2023/08/22 09:15:03;;;;;;;4.80;3.97;;;;;;;;;;5055922;28;20032;-61
2023/08/22 09:17:30;;;;;;;3.75;3.13;;;;;;;;;;5055275;28;20243;-60
2023/08/22 09:19:56;;;;;;;4.53;4.13;;;;;;;;;;5055537;28;20379;-60
2023/08/22 09:22:28;;;;;;;11.98;4.50;;;;;;;;;;5055042;28;20018;-60
2023/08/22 09:24:54;;;;;;;7.43;4.30;;;;;;;;;;5055431;28;20025;-60
2023/08/22 09:27:22;;;;;;;4.55;4.13;;;;;;;;;;5055576;28;20458;-60
2023/08/22 09:29:48;;;;;;;3.78;3.38;;;;;;;;;;5055320;28;20359;-60
2023/08/22 09:32:13;;;;;;;5.40;4.28;;;;;;;;;;5054433;28;20017;-60
2023/08/22 09:34:51;;;;;;;5.18;3.83;;;;;;;;;;5054710;28;20028;-60
2023/08/22 09:37:29;;;;;;;4.82;3.65;;;;;;;;;;5054566;28;20045;-60
2023/08/22 09:39:55;;;;;;;4.68;3.47;;;;;;;;;;5055095;28;20040;-60
2023/08/22 09:42:21;;;;;;;5.70;4.07;;;;;;;;;;5055242;28;20059;-60
2023/08/22 09:44:48;;;;;;;3.95;3.08;;;;;;;;;;5054473;28;20386;-60
2023/08/22 09:47:14;;;;;;;4.40;3.83;;;;;;;;;;5054383;28;20037;-60
2023/08/22 09:49:41;;;;;;;7.78;4.32;;;;;;;;;;5055204;28;20024;-60
2023/08/22 09:52:07;;;;;;;4.95;4.45;;;;;;;;;;5054371;28;20116;-60
2023/08/22 09:54:33;;;;;;;3.75;3.42;;;;;;;;;;5054683;28;20029;-60
2023/08/22 09:56:59;;;;;;;4.82;4.28;;;;;;;;;;5054092;28;20094;-60
2023/08/22 09:59:26;;;;;;;4.93;3.65;;;;;;;;;;5054167;28;20052;-60
2023/08/22 10:01:52;;;;;;;3.53;2.80;;;;;;;;;;5054217;28;20486;-60
2023/08/22 10:04:18;;;;;;;4.20;2.80;;;;;;;;;;5054714;28;20025;-60
2023/08/22 10:06:47;;;;;;;5.00;3.08;;;;;;;;;;5054128;28;20036;-60
2023/08/22 10:09:13;;;;;;;6.30;3.83;;;;;;;;;;5054541;28;20029;-60
2023/08/22 10:11:54;;;;;;;4.55;3.25;;;;;;;;;;5053925;28;20400;-60
2023/08/22 10:14:22;;;;;;;4.40;3.60;;;;;;;;;;5053927;28;20027;-60
2023/08/22 10:16:48;;;;;;;4.53;3.20;;;;;;;;;;5053787;28;20474;-60
2023/08/22 10:19:14;;;;;;;4.38;3.17;;;;;;;;;;5054244;28;20036;-60
2023/08/22 10:21:43;;;;;;;4.88;3.50;;;;;;;;;;5054045;28;20450;-60
2023/08/22 10:24:19;;;;;;;4.13;3.58;;;;;;;;;;5053872;28;20012;-60
2023/08/22 10:27:02;;;;;;;4.32;3.20;;;;;;;;;;5053802;28;20094;-60
2023/08/22 10:29:31;;;;;;;3.63;3.17;;;;;;;;;;5054299;28;20029;-60
2023/08/22 10:32:00;;;;;;;5.80;3.80;;;;;;;;;;5053741;28;20366;-60
2023/08/22 10:34:26;;;;;;;4.53;3.35;;;;;;;;;;5053774;28;20075;-60
2023/08/22 10:37:05;;;;;;;4.00;3.33;;;;;;;;;;5054224;28;20053;-60
2023/08/22 10:39:38;;;;;;;4.60;3.20;;;;;;;;;;5052476;28;20071;-60
2023/08/22 10:42:04;;;;;;;4.47;3.13;;;;;;;;;;5053649;28;20031;-61
2023/08/22 10:44:30;;;;;;;5.35;3.67;;;;;;;;;;5054410;28;20051;-60
2023/08/22 10:47:03;;;;;;;6.63;3.60;;;;;;;;;;5053436;28;20025;-60
2023/08/22 10:49:30;;;;;;;5.82;2.85;;;;;;;;;;5054124;28;20055;-60
2023/08/22 10:52:06;;;;;;;4.10;3.38;;;;;;;;;;5053433;28;20025;-60
2023/08/22 10:54:32;;;;;;;3.72;2.85;;;;;;;;;;5054014;28;20040;-60
2023/08/22 10:57:17;;;;;;;3.83;3.53;;;;;;;;;;5054084;28;20033;-60
2023/08/22 10:59:56;;;;;;;4.10;3.25;;;;;;;;;;5053989;28;20018;-60
2023/08/22 11:02:23;;;;;;;3.75;3.00;;;;;;;;;;5053404;28;20509;-60
2023/08/22 11:04:50;;;;;;;5.55;3.78;;;;;;;;;;5053348;28;20370;-60
2023/08/22 11:07:16;;;;;;;4.15;3.67;;;;;;;;;;5053400;28;20044;-60
2023/08/22 11:09:42;;;;;;;3.38;2.75;;;;;;;;;;5055369;28;20021;-60
2023/08/22 11:12:18;;;;;;;3.47;3.00;;;;;;;;;;5057424;28;20032;-60
2023/08/22 11:14:48;;;;;;;3.67;3.08;;;;;;;;;;5057831;28;20029;-60
2023/08/22 11:17:17;;;;;;;4.67;3.27;;;;;;;;;;5056942;28;20495;-60
2023/08/22 11:19:43;;;;;;;4.07;3.10;;;;;;;;;;5057330;28;20122;-60
2023/08/22 11:22:10;;;;;;;4.32;3.60;;;;;;;;;;5057168;28;20025;-60
2023/08/22 11:24:36;;;;;;;5.93;3.47;;;;;;;;;;5057945;28;20159;-60
2023/08/22 11:27:05;;;;;;;4.60;3.35;;;;;;;;;;5056805;28;20489;-60
2023/08/22 11:29:43;;;;;;;3.47;3.07;;;;;;;;;;5057481;28;20029;-60
2023/08/22 11:32:21;;;;;;;3.95;3.20;;;;;;;;;;5056990;28;20713;-60
2023/08/22 11:34:51;;;;;;;5.22;3.53;;;;;;;;;;5057289;28;20086;-60
2023/08/22 11:37:18;;;;;;;4.60;3.70;;;;;;;;;;5057009;28;20090;-60
2023/08/22 11:39:50;;;;;;;3.65;3.05;;;;;;;;;;5057133;28;20025;-60
2023/08/22 11:42:17;;;;;;;3.25;2.95;;;;;;;;;;5056873;28;20108;-60
2023/08/22 11:44:59;;;;;;;3.63;2.88;;;;;;;;;;5057361;28;20426;-60
2023/08/22 11:47:34;;;;;;;3.85;3.00;;;;;;;;;;5056417;28;20466;-60
2023/08/22 11:50:00;;;;;;;4.15;3.10;;;;;;;;;;5057325;28;20021;-60
2023/08/22 11:52:29;;;;;;;4.15;3.38;;;;;;;;;;5056635;28;20027;-60
2023/08/22 11:55:06;;;;;;;6.22;2.97;;;;;;;;;;5056265;28;20048;-60
2023/08/22 11:57:32;;;;;;;4.35;3.65;;;;;;;;;;5056686;28;20082;-60
2023/08/22 12:00:03;;;;;;;5.40;3.33;;;;;;;;;;5056616;28;20405;-61
2023/08/22 12:02:29;;;;;;;3.95;3.00;;;;;;;;;;5056402;28;20475;-60
2023/08/22 12:04:55;;;;;;;7.03;3.53;;;;;;;;;;5056139;28;20024;-60
2023/08/22 12:07:22;;;;;;;4.22;3.45;;;;;;;;;;5056834;28;20017;-61
2023/08/22 12:09:58;;;;;;;3.97;3.33;;;;;;;;;;5056369;28;20041;-60
2023/08/22 12:12:24;;;;;;;3.63;3.13;;;;;;;;;;5056307;28;20029;-61
2023/08/22 12:14:53;;;;;;;4.97;3.10;;;;;;;;;;5056432;28;20017;-58
2023/08/22 12:17:19;;;;;;;3.33;2.72;;;;;;;;;;5056144;28;20417;-59
2023/08/22 12:19:45;;;;;;;4.15;3.70;;;;;;;;;;5057214;28;20021;-59
2023/08/22 12:22:11;;;;;;;4.88;3.53;;;;;;;;;;5055798;28;20111;-59
2023/08/22 12:24:37;;;;;;;3.67;2.90;;;;;;;;;;5056048;28;20101;-59
2023/08/22 12:27:03;;;;;;;3.45;2.97;;;;;;;;;;5056534;28;20025;-59
2023/08/22 12:29:29;;;;;;;3.50;2.95;;;;;;;;;;5055707;28;20017;-59
2023/08/22 12:31:55;;;;;;;5.50;4.00;;;;;;;;;;5055600;28;20029;-59
2023/08/22 12:34:21;;;;;;;3.75;3.13;;;;;;;;;;5056359;28;20025;-59
2023/08/22 12:36:47;;;;;;;3.70;3.25;;;;;;;;;;5055797;28;20049;-59
2023/08/22 12:39:13;;;;;;;5.63;3.63;;;;;;;;;;5055765;28;20020;-59
2023/08/22 12:41:39;;;;;;;4.75;3.70;;;;;;;;;;5055413;28;20027;-59
2023/08/22 12:44:05;;;;;;;5.10;3.00;;;;;;;;;;5055476;28;20025;-59
2023/08/22 12:46:31;;;;;;;6.32;3.17;;;;;;;;;;5055345;28;20052;-59
2023/08/22 12:48:57;;;;;;;4.18;3.35;;;;;;;;;;5056194;28;20045;-59
2023/08/22 12:51:23;;;;;;;3.50;2.80;;;;;;;;;;5056004;28;20108;-59
2023/08/22 12:53:49;;;;;;;3.50;2.70;;;;;;;;;;5055540;28;20048;-59
2023/08/22 12:56:16;;;;;;;4.63;2.88;;;;;;;;;;5055747;28;20029;-59
2023/08/22 12:58:42;;;;;;;3.17;2.75;;;;;;;;;;5055636;28;20043;-60
2023/08/22 13:01:08;;;;;;;5.28;3.05;;;;;;;;;;5055382;28;20371;-59
2023/08/22 13:03:34;;;;;;;4.85;3.20;;;;;;;;;;5055530;28;20463;-59
2023/08/22 13:06:00;;;;;;;3.80;2.50;;;;;;;;;;5055324;28;20017;-59
2023/08/22 13:08:26;;;;;;;3.72;3.40;;;;;;;;;;5055767;28;20025;-59
2023/08/22 13:10:55;;;;;;;3.03;2.42;;;;;;;;;;5055760;28;20219;-59
2023/08/22 13:13:21;;;;;;;5.20;2.80;;;;;;;;;;5055143;28;20104;-59
2023/08/22 13:15:48;;;;;;;4.13;3.13;;;;;;;;;;5055109;28;20112;-59
2023/08/22 13:18:14;;;;;;;6.60;3.90;;;;;;;;;;5055466;28;20032;-59
2023/08/22 13:20:40;;;;;;;4.53;2.72;;;;;;;;;;5055242;28;20116;-59
2023/08/22 13:23:06;;;;;;;5.00;2.47;;;;;;;;;;5054609;28;20029;-59
2023/08/22 13:25:32;;;;;;;2.65;2.15;;;;;;;;;;5055263;28;20025;-59
2023/08/22 13:27:58;;;;;;;2.83;2.40;;;;;;;;;;5055334;28;20111;-59
2023/08/22 13:30:24;;;;;;;4.75;3.22;;;;;;;;;;5054940;28;20047;-59
2023/08/22 13:32:50;;;;;;;4.75;3.03;;;;;;;;;;5054641;28;20075;-59
2023/08/22 13:35:16;;;;;;;4.22;3.33;;;;;;;;;;5054674;28;20080;-59
2023/08/22 13:37:43;;;;;;;4.30;2.80;;;;;;;;;;5055154;28;20025;-59
2023/08/22 13:40:09;;;;;;;3.33;2.78;;;;;;;;;;5055381;28;20028;-59
2023/08/22 13:42:35;;;;;;;7.30;3.30;;;;;;;;;;5054549;28;20021;-59
2023/08/22 13:45:04;;;;;;;3.38;2.67;;;;;;;;;;5054567;28;20029;-59
2023/08/22 13:47:31;;;;;;;3.95;3.20;;;;;;;;;;5054443;28;20043;-59
2023/08/22 13:49:57;;;;;;;3.72;2.80;;;;;;;;;;5054932;28;20020;-59
2023/08/22 13:52:23;;;;;;;3.65;3.05;;;;;;;;;;5054371;28;20028;-59
2023/08/22 13:54:49;;;;;;;4.07;2.95;;;;;;;;;;5055168;28;20025;-59
2023/08/22 13:57:15;;;;;;;4.15;3.03;;;;;;;;;;5054229;28;20043;-59
2023/08/22 13:59:44;;;;;;;4.35;3.03;;;;;;;;;;5054408;28;20025;-59
2023/08/22 14:02:09;;;;;;;4.03;3.17;;;;;;;;;;5054531;28;20359;-59
2023/08/22 14:04:36;;;;;;;4.20;3.00;;;;;;;;;;5054127;28;20024;-59
2023/08/22 14:07:02;;;;;;;3.60;3.00;;;;;;;;;;5054140;28;20398;-59
2023/08/22 14:09:28;;;;;;;4.95;3.20;;;;;;;;;;5054387;28;20032;-59
2023/08/22 14:11:54;;;;;;;4.50;2.58;;;;;;;;;;5054099;28;20029;-59
2023/08/22 14:14:20;;;;;;;4.15;3.00;;;;;;;;;;5054037;28;20031;-62
2023/08/22 14:16:46;;;;;;;5.45;3.17;;;;;;;;;;5054460;28;20440;-61
2023/08/22 14:19:13;;;;;;;4.18;3.58;;;;;;;;;;5054520;28;20112;-60
2023/08/22 14:21:39;;;;;;;3.88;2.70;;;;;;;;;;5054209;28;20107;-60
2023/08/22 14:24:05;;;;;;;6.30;3.30;;;;;;;;;;5054432;28;20028;-60
2023/08/22 14:26:31;;;;;;;6.80;3.60;;;;;;;;;;5053798;28;20064;-60
2023/08/22 14:28:59;;;;;;;3.90;3.47;;;;;;;;;;5054414;28;20049;-61
2023/08/22 14:31:25;;;;;;;4.57;3.20;;;;;;;;;;5053802;28;20374;-61
2023/08/22 14:33:51;;;;;;;3.00;2.70;;;;;;;;;;5053702;28;20017;-61
2023/08/22 14:36:17;;;;;;;4.22;3.08;;;;;;;;;;5054142;28;20130;-59
2023/08/22 14:38:43;;;;;;;4.57;3.28;;;;;;;;;;5053383;28;20068;-59
2023/08/22 14:41:09;;;;;;;4.82;3.15;;;;;;;;;;5053673;28;20025;-59